Wellesbourne Mountford, United Kingdom
Current Conditions -  °F | °C
As of 8:50 PM on Thursday 18 Dec 2014 (Local Time) from EGBE Reporting Station
Light Rain Light Rain  
Wind Chill: 54°   Ceiling: 2400
Heat Index: 54°   Visibility: 6mi
Dew Point: 52°   Wind: 13mph
Humidity: 94%   Direction: 210°SSW
Pressure: 29.74"   Gusts: NA
Location:  52.18°N, 1.58°W
Report Text: EGBE 182050Z 21011KT 9000 -RA FEW012 BKN024 12/11 Q1007
Loading
Personal Weather Stations






























Interactive Weather Map New forecast layout! Learn more

10-Day Weather Forecast

Advertisements
Track Severe Weather on mobile